Aeroporto :
LOGIN :

Iscrizione | Disclaimer

   EN    FR    IT 

 










Sommario :    VFR   VFR Marginale   IFR   IFR Intensivo   IFR Molto Intensivo
Visibilità : 
Base nubi : 
>= 8 km
>= 3000ft
5 / 8 km
1000 / 3000 ft
1500m / 5 km
500 / 1000 ft
800 / 1500m
200 / 500 ft
< 800m
< 200 ft
Simboli :   Temporali  Nebbia  Neve Forte  Precipitazioni Forti  Vento > 20 kt
SIGMETs :   Varie  Temporali  Ghiacco  Turbolenza  Onda orograficha  Ceneri Vulcaniche






- Altitudine del aeroporto : 935 ft


EBFS - Florennes

ULTIMO METAR :
  • 301155Z 30014KT 9999 FEW020 SCT025 06/01 Q1021 BLU BLU

METARs OBSOLETI :
  • 301125Z 29011KT 9999 FEW018 06/02 Q1021 BLU BLU
  • 301055Z 30013KT 9999 FEW018 06/02 Q1022 BLU BLU
  • 301035Z 29015KT 9999 FEW009 SCT016 BKN023 06/02 Q1021 WHT WHT BECMG BLU
  • 300955Z 28014KT 9999 BR FEW004 BKN007 BKN045 06/05 Q1021 GRN GRN BECMG WHT
  • 300946Z 28013KT 9999 BR FEW004 BKN007 BKN045 06/04 Q1021 GRN GRN BECMG WHT
  • 300925Z 28013KT 7000 BR FEW002 SCT004 BKN006 05/05 Q1021 YLO YLO
  • 300917Z 28013KT 7000 BR FEW002 SCT004 BKN006 05/05 Q1021 YLO YLO

TAF TAF EBFS
Valido dal 30 a 10 ore il 30 a 19 ore UTC


300841Z 3010/3019 26012KT 9999 SCT007 SCT010
TEMPO 3010/3016 29015G25KT
BECMG 3010/3012 30012KT FEW010 SCT015
BECMG 3016/3018 SCT025



MetMap, La meteo Aeronautica in un colpo d'occhio ! - Copyright ORBIFLY Dicembre 2007 - Disclaimer

ORBIFLY MET'MAP TEAM :

Programmazione e sviluppo : Alexandra Zaïnal
Concezione : Baudouin d'Aumeries
Supporto tecnico e logistico : Manuel Goepfert
Aiuto : Marc-Olivier Méhu
Aiuto per la traduzione : Arnaldo La Scala




FONTI E CREDITI :

   NOAA